createdAt,value
2017-05-31T00:00:23.545Z,0
2017-05-31T00:01:32.591Z,0
2017-05-31T00:02:41.481Z,0
2017-05-31T00:03:50.698Z,0
2017-05-31T00:04:59.597Z,0
2017-05-31T00:06:08.809Z,0
2017-05-31T00:07:18.001Z,0
2017-05-31T00:08:27.227Z,0
2017-05-31T00:09:36.764Z,0
2017-05-31T00:10:45.721Z,0
2017-05-31T00:11:54.953Z,0
2017-05-31T00:13:04.143Z,0
2017-05-31T00:14:13.355Z,0
2017-05-31T00:15:22.575Z,0
2017-05-31T00:16:31.816Z,0
2017-05-31T00:17:41.036Z,0
2017-05-31T00:18:49.974Z,0
2017-05-31T00:19:59.188Z,0
2017-05-31T00:21:08.081Z,0
2017-05-31T00:22:16.970Z,0
2017-05-31T00:23:25.889Z,0
2017-05-31T00:24:34.928Z,0
2017-05-31T00:25:43.818Z,0
2017-05-31T00:26:52.711Z,0
2017-05-31T00:28:01.924Z,0
2017-05-31T00:29:10.814Z,0
2017-05-31T00:30:19.858Z,0
2017-05-31T00:31:29.078Z,0
2017-05-31T00:32:37.967Z,0
2017-05-31T00:33:47.177Z,0
2017-05-31T00:34:56.074Z,0
2017-05-31T00:36:05.388Z,0
2017-05-31T00:37:14.279Z,0
2017-05-31T00:38:23.174Z,0
2017-05-31T00:39:32.061Z,0
2017-05-31T00:40:40.953Z,0
2017-05-31T00:41:50.172Z,0
2017-05-31T00:42:59.066Z,0
2017-05-31T00:44:08.280Z,0
2017-05-31T00:45:17.171Z,0
2017-05-31T00:46:26.065Z,0
2017-05-31T00:47:35.783Z,0
2017-05-31T00:48:44.670Z,0
2017-05-31T00:49:53.885Z,0
2017-05-31T00:51:02.783Z,0
2017-05-31T00:52:11.996Z,0
2017-05-31T00:53:21.039Z,0
2017-05-31T00:54:29.936Z,0
2017-05-31T00:55:38.823Z,0
2017-05-31T00:56:47.710Z,0
2017-05-31T00:57:56.600Z,0
2017-05-31T00:59:05.646Z,0
2017-05-31T01:00:14.866Z,0
2017-05-31T01:01:23.757Z,0
2017-05-31T01:02:32.973Z,0
2017-05-31T01:03:41.873Z,0
2017-05-31T01:04:51.099Z,0
2017-05-31T01:06:00.316Z,0
2017-05-31T01:07:09.215Z,0
2017-05-31T01:08:18.103Z,0
2017-05-31T01:09:27.322Z,0
2017-05-31T01:10:36.843Z,0
2017-05-31T01:11:45.734Z,0
2017-05-31T01:12:54.619Z,0
2017-05-31T01:14:03.514Z,0
2017-05-31T01:15:12.402Z,0
2017-05-31T01:16:21.443Z,0
2017-05-31T01:17:30.339Z,0
2017-05-31T01:18:39.234Z,0
2017-05-31T01:19:48.125Z,0
2017-05-31T01:20:57.340Z,0
2017-05-31T01:22:07.136Z,0
2017-05-31T01:23:16.028Z,0
2017-05-31T01:24:24.918Z,0
2017-05-31T01:25:34.138Z,0
2017-05-31T01:26:43.355Z,0
2017-05-31T01:27:52.393Z,0
2017-05-31T01:29:01.613Z,0
2017-05-31T01:30:10.505Z,0
2017-05-31T01:31:19.401Z,0
2017-05-31T01:32:28.615Z,0
2017-05-31T01:33:38.157Z,0
2017-05-31T01:34:47.695Z,0
2017-05-31T01:35:56.909Z,0
2017-05-31T01:37:05.804Z,0
2017-05-31T01:38:14.691Z,0
2017-05-31T01:39:23.579Z,0
2017-05-31T01:40:32.476Z,0
2017-05-31T01:41:41.368Z,0
2017-05-31T01:42:50.254Z,0
2017-05-31T01:43:59.146Z,0
2017-05-31T01:45:08.663Z,0
2017-05-31T01:46:17.555Z,0
2017-05-31T01:47:26.773Z,0
2017-05-31T01:48:35.668Z,0
2017-05-31T01:49:44.558Z,0
2017-05-31T01:50:53.652Z,0
2017-05-31T01:52:02.546Z,0
2017-05-31T01:53:11.437Z,0
2017-05-31T01:54:20.324Z,0
2017-05-31T01:55:29.552Z,0
2017-05-31T01:56:38.820Z,0
2017-05-31T01:57:47.708Z,0
2017-05-31T01:58:56.984Z,0
2017-05-31T02:00:06.208Z,0
2017-05-31T02:01:15.096Z,0
2017-05-31T02:02:23.987Z,0
2017-05-31T02:03:33.526Z,0
2017-05-31T02:04:42.415Z,0
2017-05-31T02:05:51.628Z,0
2017-05-31T02:07:01.173Z,0
2017-05-31T02:08:10.861Z,0
2017-05-31T02:09:19.750Z,0
2017-05-31T02:10:28.641Z,0
2017-05-31T02:11:37.535Z,0
2017-05-31T02:12:47.401Z,0
2017-05-31T02:13:56.592Z,0
2017-05-31T02:15:05.482Z,0
2017-05-31T02:16:15.022Z,0
2017-05-31T02:17:24.239Z,0
2017-05-31T02:18:33.131Z,0
2017-05-31T02:19:42.443Z,0
2017-05-31T02:20:51.654Z,0
2017-05-31T02:22:00.872Z,0
2017-05-31T02:23:09.773Z,0
2017-05-31T02:24:18.997Z,0
2017-05-31T02:25:28.288Z,0
2017-05-31T02:26:37.186Z,0
2017-05-31T02:27:46.398Z,0
2017-05-31T02:28:55.288Z,0
2017-05-31T02:30:04.182Z,0
2017-05-31T02:31:13.549Z,0
2017-05-31T02:32:22.763Z,0
2017-05-31T02:33:31.992Z,0
2017-05-31T02:34:41.210Z,0
2017-05-31T02:35:50.101Z,0
2017-05-31T02:36:59.141Z,0
2017-05-31T02:38:08.032Z,0
2017-05-31T02:39:17.252Z,0
2017-05-31T02:40:26.794Z,0
2017-05-31T02:41:36.337Z,0
2017-05-31T02:42:45.378Z,0
2017-05-31T02:43:54.269Z,0
2017-05-31T02:45:03.170Z,0
2017-05-31T02:46:12.708Z,0
2017-05-31T02:47:21.596Z,0
2017-05-31T02:48:30.546Z,0
2017-05-31T02:49:39.439Z,0
2017-05-31T02:50:48.327Z,0
2017-05-31T02:51:57.542Z,0
2017-05-31T02:53:07.086Z,0
2017-05-31T02:54:16.360Z,0
2017-05-31T02:55:25.255Z,0
2017-05-31T02:56:34.464Z,0
2017-05-31T02:57:43.354Z,0
2017-05-31T02:58:52.249Z,0
2017-05-31T03:00:01.141Z,0
2017-05-31T03:01:10.034Z,0
2017-05-31T03:02:18.929Z,5
2017-05-31T03:03:27.844Z,5
2017-05-31T03:04:37.060Z,5
2017-05-31T03:05:46.524Z,5
2017-05-31T03:06:55.424Z,5
2017-05-31T03:08:04.313Z,10
2017-05-31T03:09:13.529Z,10
2017-05-31T03:10:22.420Z,10
2017-05-31T03:11:31.314Z,10
2017-05-31T03:12:40.205Z,10
2017-05-31T03:13:49.096Z,10
2017-05-31T03:14:57.988Z,15
2017-05-31T03:16:07.211Z,15
2017-05-31T03:17:16.251Z,15
2017-05-31T03:18:25.144Z,15
2017-05-31T03:19:34.033Z,15
2017-05-31T03:20:42.934Z,20
2017-05-31T03:21:51.822Z,20
2017-05-31T03:23:00.710Z,20
2017-05-31T03:24:09.603Z,20
2017-05-31T03:25:18.830Z,25
2017-05-31T03:26:28.040Z,25
2017-05-31T03:27:36.935Z,25
2017-05-31T03:28:46.302Z,30
2017-05-31T03:29:55.522Z,30
2017-05-31T03:31:04.445Z,30
2017-05-31T03:32:13.659Z,30
2017-05-31T03:33:22.545Z,35
2017-05-31T03:34:32.156Z,35
2017-05-31T03:35:41.375Z,35
2017-05-31T03:36:50.590Z,40
2017-05-31T03:37:59.810Z,40
2017-05-31T03:39:08.705Z,40
2017-05-31T03:40:17.749Z,40
2017-05-31T03:41:26.649Z,45
2017-05-31T03:42:35.544Z,45
2017-05-31T03:43:44.753Z,45
2017-05-31T03:44:53.646Z,45
2017-05-31T03:46:02.865Z,50
2017-05-31T03:47:11.754Z,50
2017-05-31T03:48:20.656Z,50
2017-05-31T03:49:29.865Z,55
2017-05-31T03:50:38.758Z,55
2017-05-31T03:51:47.899Z,55
2017-05-31T03:52:56.796Z,55
2017-05-31T03:54:05.689Z,55
2017-05-31T03:55:15.236Z,55
2017-05-31T03:56:24.454Z,60
2017-05-31T03:58:05.653Z,65
2017-05-31T03:59:14.544Z,65
2017-05-31T04:00:23.437Z,65
2017-05-31T04:01:32.653Z,65
2017-05-31T04:02:41.606Z,70
2017-05-31T04:03:50.816Z,70
2017-05-31T04:04:59.779Z,70
2017-05-31T04:06:08.670Z,75
2017-05-31T04:07:17.885Z,75
2017-05-31T04:08:27.255Z,75
2017-05-31T04:09:36.161Z,75
2017-05-31T04:10:45.390Z,80
2017-05-31T04:11:54.601Z,80
2017-05-31T04:13:03.493Z,85
2017-05-31T04:14:13.010Z,85
2017-05-31T04:15:21.900Z,85
2017-05-31T04:16:30.794Z,90
2017-05-31T04:17:40.361Z,90
2017-05-31T04:18:49.252Z,90
2017-05-31T04:19:58.442Z,95
2017-05-31T04:21:07.336Z,95
2017-05-31T04:22:16.224Z,100
2017-05-31T04:23:25.441Z,105
2017-05-31T04:24:34.337Z,95
2017-05-31T04:25:43.293Z,95
2017-05-31T04:26:52.180Z,100
2017-05-31T04:28:01.394Z,100
2017-05-31T04:29:10.285Z,100
2017-05-31T04:30:19.503Z,100
2017-05-31T04:31:28.869Z,95
2017-05-31T04:32:37.755Z,95
2017-05-31T04:33:46.645Z,105
2017-05-31T04:34:55.865Z,105
2017-05-31T04:36:04.758Z,110
2017-05-31T04:37:14.076Z,110
2017-05-31T04:38:23.293Z,110
2017-05-31T04:39:32.205Z,115
2017-05-31T04:40:41.099Z,115
2017-05-31T04:41:49.985Z,115
2017-05-31T04:42:59.095Z,110
2017-05-31T04:44:08.636Z,115
2017-05-31T04:45:17.524Z,120
2017-05-31T04:46:26.413Z,125
2017-05-31T04:47:35.308Z,155
2017-05-31T04:48:44.573Z,140
2017-05-31T04:49:53.467Z,135
2017-05-31T04:51:02.359Z,130
2017-05-31T04:52:11.247Z,120
2017-05-31T04:53:20.459Z,120
2017-05-31T04:54:29.503Z,130
2017-05-31T04:55:38.394Z,125
2017-05-31T04:56:47.280Z,130
2017-05-31T04:57:56.495Z,130
2017-05-31T04:59:05.389Z,135
2017-05-31T05:00:15.086Z,155
2017-05-31T05:01:24.305Z,150
2017-05-31T05:02:33.203Z,135
2017-05-31T05:03:42.417Z,155
2017-05-31T05:04:51.309Z,165
2017-05-31T05:06:00.459Z,160
2017-05-31T05:07:09.353Z,155
2017-05-31T05:08:18.247Z,155
2017-05-31T05:09:27.145Z,160
2017-05-31T05:10:36.044Z,150
2017-05-31T05:11:45.409Z,135
2017-05-31T05:12:54.302Z,140
2017-05-31T05:14:03.195Z,125
2017-05-31T05:15:12.098Z,120
2017-05-31T05:16:21.002Z,145
2017-05-31T05:17:30.375Z,170
2017-05-31T05:18:39.269Z,155
2017-05-31T05:19:48.179Z,140
2017-05-31T05:20:57.088Z,140
2017-05-31T05:22:06.309Z,165
2017-05-31T05:23:15.205Z,170
2017-05-31T05:24:24.117Z,180
2017-05-31T05:25:33.012Z,170
2017-05-31T05:26:41.916Z,160
2017-05-31T05:27:50.808Z,160
2017-05-31T05:28:59.702Z,165
2017-05-31T05:30:08.597Z,230
2017-05-31T05:31:17.490Z,225
2017-05-31T05:32:26.769Z,215
2017-05-31T05:33:35.668Z,210
2017-05-31T05:34:44.561Z,195
2017-05-31T05:35:53.454Z,200
2017-05-31T05:37:02.351Z,170
2017-05-31T05:38:11.572Z,175
2017-05-31T05:39:20.466Z,175
2017-05-31T05:40:29.457Z,185
2017-05-31T05:41:38.357Z,205
2017-05-31T05:42:47.249Z,165
2017-05-31T05:43:56.143Z,160
2017-05-31T05:45:05.037Z,170
2017-05-31T05:46:14.729Z,160
2017-05-31T05:47:23.621Z,175
2017-05-31T05:48:32.516Z,185
2017-05-31T05:49:41.417Z,180
2017-05-31T05:50:50.314Z,175
2017-05-31T05:51:59.309Z,230
2017-05-31T05:53:08.203Z,200
2017-05-31T05:54:17.096Z,220
2017-05-31T05:55:25.994Z,300
2017-05-31T05:56:35.237Z,210
2017-05-31T05:57:44.430Z,215
2017-05-31T05:58:53.330Z,190
2017-05-31T06:00:02.557Z,225
2017-05-31T06:01:11.448Z,310
2017-05-31T06:02:20.672Z,295
2017-05-31T06:03:29.888Z,265
2017-05-31T06:04:39.112Z,185
2017-05-31T06:05:48.338Z,185
2017-05-31T06:06:57.232Z,180
2017-05-31T06:08:06.126Z,195
2017-05-31T06:09:15.492Z,180
2017-05-31T06:10:24.395Z,240
2017-05-31T06:11:33.289Z,185
2017-05-31T06:12:42.186Z,170
2017-05-31T06:13:51.412Z,165
2017-05-31T06:15:00.603Z,165
2017-05-31T06:16:09.503Z,170
2017-05-31T06:17:18.727Z,180
2017-05-31T06:18:27.618Z,205
2017-05-31T06:19:36.842Z,250
2017-05-31T06:20:46.113Z,280
2017-05-31T06:21:55.012Z,300
2017-05-31T06:23:04.558Z,250
2017-05-31T06:24:13.454Z,275
2017-05-31T06:25:22.350Z,290
2017-05-31T06:26:31.497Z,325
2017-05-31T06:27:40.403Z,245
2017-05-31T06:28:49.951Z,230
2017-05-31T06:29:58.843Z,290
2017-05-31T06:31:07.738Z,380
2017-05-31T06:32:17.064Z,255
2017-05-31T06:33:25.956Z,295
2017-05-31T06:34:35.174Z,350
2017-05-31T06:35:44.129Z,265
2017-05-31T06:36:53.675Z,260
2017-05-31T06:38:02.618Z,280
2017-05-31T06:39:11.512Z,200
2017-05-31T06:40:20.411Z,195
2017-05-31T06:41:29.956Z,215
2017-05-31T06:42:38.852Z,175
2017-05-31T06:43:48.124Z,205
2017-05-31T06:44:57.020Z,190
2017-05-31T06:46:05.921Z,215
2017-05-31T06:47:15.144Z,245
2017-05-31T06:48:24.038Z,315
2017-05-31T06:49:33.086Z,375
2017-05-31T06:50:41.980Z,330
2017-05-31T06:51:50.872Z,320
2017-05-31T06:52:59.775Z,265
2017-05-31T06:54:09.003Z,325
2017-05-31T06:55:18.047Z,360
2017-05-31T06:56:26.942Z,310
2017-05-31T06:57:36.175Z,220
2017-05-31T06:58:45.402Z,210
2017-05-31T06:59:54.630Z,190
2017-05-31T07:01:04.299Z,185
2017-05-31T07:02:13.197Z,200
2017-05-31T07:03:22.418Z,245
2017-05-31T07:04:31.659Z,270
2017-05-31T07:05:40.882Z,260
2017-05-31T07:06:49.926Z,260
2017-05-31T07:07:59.149Z,295
2017-05-31T07:09:08.051Z,355
2017-05-31T07:10:16.943Z,280
2017-05-31T07:11:25.837Z,225
2017-05-31T07:12:34.831Z,235
2017-05-31T07:13:44.063Z,235
2017-05-31T07:14:52.955Z,280
2017-05-31T07:16:02.177Z,265
2017-05-31T07:17:11.075Z,240
2017-05-31T07:18:20.277Z,250
2017-05-31T07:19:29.819Z,265
2017-05-31T07:20:38.714Z,275
2017-05-31T07:21:47.684Z,360
2017-05-31T07:22:56.922Z,215
2017-05-31T07:24:05.969Z,265
2017-05-31T07:25:14.868Z,320
2017-05-31T07:26:23.766Z,355
2017-05-31T07:27:32.987Z,325
2017-05-31T07:28:41.884Z,275
2017-05-31T07:29:51.181Z,215
2017-05-31T07:31:00.408Z,255
2017-05-31T07:32:09.639Z,260
2017-05-31T07:33:18.534Z,285
2017-05-31T07:34:27.478Z,265
2017-05-31T07:35:37.051Z,250
2017-05-31T07:36:45.947Z,225
2017-05-31T07:37:54.848Z,285
2017-05-31T07:39:03.741Z,290
2017-05-31T07:40:12.637Z,320
2017-05-31T07:41:22.022Z,340
2017-05-31T07:42:31.246Z,390
2017-05-31T07:43:40.141Z,325
2017-05-31T07:44:49.034Z,320
2017-05-31T07:45:58.257Z,335
2017-05-31T07:47:07.638Z,335
2017-05-31T07:48:16.530Z,330
2017-05-31T07:49:25.424Z,290
2017-05-31T07:50:34.646Z,330
2017-05-31T07:51:44.191Z,405
2017-05-31T07:52:53.246Z,400
2017-05-31T07:54:02.476Z,310
2017-05-31T07:55:11.701Z,335
2017-05-31T07:56:20.598Z,315
2017-05-31T07:57:29.499Z,345
2017-05-31T07:58:38.548Z,445
2017-05-31T07:59:47.439Z,410
2017-05-31T08:00:56.663Z,310
2017-05-31T08:02:05.562Z,215
2017-05-31T08:03:14.455Z,205
2017-05-31T08:04:23.979Z,205
2017-05-31T08:05:32.880Z,190
2017-05-31T08:06:41.776Z,215
2017-05-31T08:07:50.678Z,230
2017-05-31T08:08:59.578Z,250
2017-05-31T08:10:08.821Z,270
2017-05-31T08:11:17.721Z,295
2017-05-31T08:12:27.271Z,310
2017-05-31T08:13:36.172Z,425
2017-05-31T08:14:45.397Z,445
2017-05-31T08:15:54.396Z,320
2017-05-31T08:17:03.290Z,310
2017-05-31T08:18:12.841Z,340
2017-05-31T08:19:21.734Z,350
2017-05-31T08:20:30.635Z,335
2017-05-31T08:21:39.911Z,405
2017-05-31T08:22:48.810Z,325
2017-05-31T08:23:57.709Z,310
2017-05-31T08:25:06.608Z,305
2017-05-31T08:26:15.824Z,310
2017-05-31T08:27:24.870Z,355
2017-05-31T08:28:33.765Z,370
2017-05-31T08:29:42.739Z,320
2017-05-31T08:30:51.633Z,270
2017-05-31T08:32:00.531Z,245
2017-05-31T08:33:10.006Z,240
2017-05-31T08:34:19.228Z,265
2017-05-31T08:35:28.126Z,270
2017-05-31T08:36:37.027Z,295
2017-05-31T08:37:45.963Z,335
2017-05-31T08:38:55.661Z,375
2017-05-31T08:40:04.559Z,350
2017-05-31T08:41:13.784Z,275
2017-05-31T08:42:22.684Z,270
2017-05-31T08:43:31.903Z,240
2017-05-31T08:44:40.952Z,265
2017-05-31T08:45:49.848Z,365
2017-05-31T08:46:58.742Z,415
2017-05-31T08:48:07.644Z,410
2017-05-31T08:49:16.864Z,430
2017-05-31T08:50:26.065Z,450
2017-05-31T08:51:34.961Z,380
2017-05-31T08:52:44.208Z,260
2017-05-31T08:53:53.103Z,205
2017-05-31T08:55:02.006Z,230
2017-05-31T08:56:11.711Z,220
2017-05-31T08:57:20.608Z,215
2017-05-31T08:58:30.153Z,230
2017-05-31T08:59:39.439Z,300
2017-05-31T09:00:48.662Z,370
2017-05-31T09:01:57.714Z,455
2017-05-31T09:03:06.613Z,440
2017-05-31T09:04:15.836Z,440
2017-05-31T09:05:25.060Z,470
2017-05-31T09:06:33.959Z,515
2017-05-31T09:07:43.336Z,410
2017-05-31T09:08:52.235Z,355
2017-05-31T09:10:01.137Z,285
2017-05-31T09:11:10.358Z,275
2017-05-31T09:12:19.262Z,320
2017-05-31T09:13:28.209Z,265
2017-05-31T09:14:37.430Z,315
2017-05-31T09:15:46.362Z,410
2017-05-31T09:16:55.255Z,430
2017-05-31T09:18:04.480Z,330
2017-05-31T09:19:13.704Z,425
2017-05-31T09:20:22.940Z,360
2017-05-31T09:21:31.840Z,245
2017-05-31T09:22:41.060Z,270
2017-05-31T09:23:49.959Z,260
2017-05-31T09:24:58.904Z,345
2017-05-31T09:26:07.799Z,495
2017-05-31T09:27:16.698Z,580
2017-05-31T09:28:25.926Z,520
2017-05-31T09:29:35.169Z,415
2017-05-31T09:30:44.213Z,435
2017-05-31T09:31:53.436Z,450
2017-05-31T09:33:02.336Z,380
2017-05-31T09:34:11.233Z,255
2017-05-31T09:35:20.465Z,205
2017-05-31T09:36:29.412Z,225
2017-05-31T09:37:38.692Z,235
2017-05-31T09:38:47.588Z,230
2017-05-31T09:39:56.804Z,235
2017-05-31T09:41:06.033Z,230
2017-05-31T09:42:14.936Z,250
2017-05-31T09:43:23.831Z,265
2017-05-31T09:44:32.727Z,295
2017-05-31T09:45:41.625Z,345
2017-05-31T09:46:50.527Z,425
2017-05-31T09:47:59.852Z,390
2017-05-31T09:49:09.072Z,305
2017-05-31T09:50:17.973Z,285
2017-05-31T09:51:26.871Z,285
2017-05-31T09:52:36.090Z,325
2017-05-31T09:53:45.188Z,380
2017-05-31T09:54:54.082Z,395
2017-05-31T09:56:02.981Z,375
2017-05-31T09:57:11.879Z,340
2017-05-31T09:58:21.169Z,330
2017-05-31T09:59:30.119Z,330
2017-05-31T10:00:39.343Z,385
2017-05-31T10:01:48.240Z,410
2017-05-31T10:02:57.462Z,390
2017-05-31T10:04:06.680Z,410
2017-05-31T10:05:15.881Z,395
2017-05-31T10:06:24.776Z,410
2017-05-31T10:07:33.669Z,415
2017-05-31T10:08:42.565Z,390
2017-05-31T10:09:51.465Z,405
2017-05-31T10:11:00.987Z,360
2017-05-31T10:12:10.217Z,370
2017-05-31T10:13:19.117Z,445
2017-05-31T10:14:28.017Z,440
2017-05-31T10:15:36.915Z,450
2017-05-31T10:16:46.616Z,445
2017-05-31T10:17:55.851Z,470
2017-05-31T10:19:05.396Z,520
2017-05-31T10:20:14.944Z,405
2017-05-31T10:21:23.844Z,440
2017-05-31T10:22:32.888Z,420
2017-05-31T10:23:41.790Z,500
2017-05-31T10:24:50.702Z,480
2017-05-31T10:25:59.922Z,385
2017-05-31T10:27:09.146Z,505
2017-05-31T10:28:18.447Z,545
2017-05-31T10:29:27.363Z,560
2017-05-31T10:30:36.260Z,490
2017-05-31T10:31:45.155Z,340
2017-05-31T10:32:54.056Z,255
2017-05-31T10:34:03.103Z,240
2017-05-31T10:35:11.999Z,270
2017-05-31T10:36:20.901Z,275
2017-05-31T10:37:29.794Z,290
2017-05-31T10:38:38.693Z,300
2017-05-31T10:39:48.122Z,330
2017-05-31T10:40:57.023Z,340
2017-05-31T10:42:05.918Z,360
2017-05-31T10:43:14.817Z,410
2017-05-31T10:44:23.722Z,465
2017-05-31T10:45:32.942Z,375
2017-05-31T10:46:42.173Z,435
2017-05-31T10:47:51.394Z,445
2017-05-31T10:49:00.298Z,495
2017-05-31T10:50:09.210Z,525
2017-05-31T10:51:18.583Z,480
2017-05-31T10:52:27.805Z,445
2017-05-31T10:53:36.706Z,435
2017-05-31T10:54:45.603Z,425
2017-05-31T10:55:54.833Z,315
2017-05-31T10:57:03.830Z,375
2017-05-31T10:58:13.055Z,340
2017-05-31T10:59:22.609Z,370
2017-05-31T11:00:31.507Z,540
2017-05-31T11:01:40.409Z,565
2017-05-31T11:02:49.618Z,465
2017-05-31T11:03:58.839Z,390
2017-05-31T11:05:08.708Z,440
2017-05-31T11:06:17.611Z,455
2017-05-31T11:07:27.169Z,350
2017-05-31T11:08:36.216Z,405
2017-05-31T11:09:45.120Z,425
2017-05-31T11:10:54.019Z,495
2017-05-31T11:12:02.915Z,405
2017-05-31T11:13:11.815Z,445
2017-05-31T11:14:20.912Z,520
2017-05-31T11:15:29.809Z,505
2017-05-31T11:16:39.352Z,600
2017-05-31T11:17:48.252Z,635
2017-05-31T11:18:57.145Z,530
2017-05-31T11:20:06.697Z,465
2017-05-31T11:21:15.924Z,515
2017-05-31T11:22:24.822Z,590
2017-05-31T11:23:34.044Z,510
2017-05-31T11:24:42.938Z,475
2017-05-31T11:25:51.835Z,400
2017-05-31T11:27:01.061Z,360
2017-05-31T11:28:09.959Z,430
2017-05-31T11:29:18.864Z,450
2017-05-31T11:30:27.776Z,460
2017-05-31T11:31:36.824Z,520
2017-05-31T11:32:45.723Z,590
2017-05-31T11:33:54.619Z,545
2017-05-31T11:35:03.513Z,465
2017-05-31T11:36:12.413Z,410
2017-05-31T11:37:21.465Z,430
2017-05-31T11:38:30.364Z,540
2017-05-31T11:39:39.586Z,590
2017-05-31T11:40:48.486Z,470
2017-05-31T11:41:57.386Z,360
2017-05-31T11:43:06.438Z,395
2017-05-31T11:44:15.340Z,455
2017-05-31T11:45:24.242Z,520
2017-05-31T11:46:33.140Z,510
2017-05-31T11:47:42.424Z,500
2017-05-31T11:48:51.797Z,630
2017-05-31T11:50:01.014Z,585
2017-05-31T11:51:09.912Z,630
2017-05-31T11:52:18.815Z,925
2017-05-31T11:53:27.711Z,490
2017-05-31T11:54:36.707Z,3365
2017-05-31T11:55:45.604Z,3315
2017-05-31T11:56:54.506Z,3480
2017-05-31T11:58:03.425Z,3215
2017-05-31T11:59:12.973Z,3540
2017-05-31T12:00:21.974Z,4010
2017-05-31T12:01:30.878Z,3630
2017-05-31T12:02:39.796Z,3560
2017-05-31T12:03:48.698Z,4055
2017-05-31T12:04:57.608Z,3525
2017-05-31T12:06:06.562Z,3665
2017-05-31T12:07:15.803Z,3540
2017-05-31T12:08:24.703Z,3700
2017-05-31T12:09:33.604Z,3640
2017-05-31T12:10:42.510Z,3315
2017-05-31T12:11:51.514Z,3710
2017-05-31T12:13:00.416Z,4310
2017-05-31T12:14:09.324Z,3565
2017-05-31T12:15:18.233Z,1710
2017-05-31T12:16:27.470Z,590
2017-05-31T12:17:37.276Z,3515
2017-05-31T12:18:46.833Z,2290
2017-05-31T12:19:55.845Z,3500
2017-05-31T12:21:04.748Z,4045
2017-05-31T12:22:13.653Z,4175
2017-05-31T12:23:22.987Z,440
2017-05-31T12:24:31.900Z,3800
2017-05-31T12:25:40.817Z,4165
2017-05-31T12:26:49.725Z,3960
2017-05-31T12:27:58.630Z,4155
2017-05-31T12:29:07.534Z,4270
2017-05-31T12:30:16.444Z,4150
2017-05-31T12:31:25.679Z,4175
2017-05-31T12:32:34.912Z,4400
2017-05-31T12:33:44.143Z,4415
2017-05-31T12:34:53.200Z,4140
2017-05-31T12:36:02.114Z,525
2017-05-31T12:37:11.348Z,4495
2017-05-31T12:38:20.259Z,4215
2017-05-31T12:39:29.183Z,3945
2017-05-31T12:40:39.041Z,3950
2017-05-31T12:41:47.945Z,4265
2017-05-31T12:42:56.924Z,4255
2017-05-31T12:44:05.835Z,4235
2017-05-31T12:45:15.079Z,3925
2017-05-31T12:46:24.614Z,3865
2017-05-31T12:47:33.853Z,3800
2017-05-31T12:48:42.763Z,3835
2017-05-31T12:49:51.682Z,4175
2017-05-31T12:51:00.927Z,3925
2017-05-31T12:52:10.041Z,4150
2017-05-31T12:53:19.004Z,4375
2017-05-31T12:54:27.914Z,4055
2017-05-31T12:55:36.828Z,3885
2017-05-31T12:56:45.738Z,3840
2017-05-31T12:57:54.998Z,4110
2017-05-31T12:59:04.294Z,4385
2017-05-31T13:00:13.205Z,4310
2017-05-31T13:01:22.123Z,2080
2017-05-31T13:02:31.037Z,4300
2017-05-31T13:03:40.051Z,1515
2017-05-31T13:04:48.959Z,540
2017-05-31T13:05:57.876Z,720
2017-05-31T13:07:06.788Z,2740
2017-05-31T13:08:15.707Z,3500
2017-05-31T13:09:24.777Z,1260
2017-05-31T13:10:33.691Z,3605
2017-05-31T13:11:42.923Z,3935
2017-05-31T13:12:52.155Z,740
2017-05-31T13:14:01.060Z,3740
2017-05-31T13:15:10.448Z,1085
2017-05-31T13:16:19.361Z,4015
2017-05-31T13:17:28.276Z,4220
2017-05-31T13:18:37.187Z,1095
2017-05-31T13:19:46.105Z,3775
2017-05-31T13:20:55.816Z,3720
2017-05-31T13:22:05.071Z,3210
2017-05-31T13:23:14.330Z,3130
2017-05-31T13:24:23.245Z,3425
2017-05-31T13:25:32.479Z,3205
2017-05-31T13:26:41.815Z,3535
2017-05-31T13:27:50.731Z,4000
2017-05-31T13:28:59.640Z,3905
2017-05-31T13:30:08.878Z,3930
2017-05-31T13:31:18.123Z,3130
2017-05-31T13:32:27.472Z,3875
2017-05-31T13:33:36.392Z,4285
2017-05-31T13:34:45.623Z,4335
2017-05-31T13:35:54.861Z,4260
2017-05-31T13:37:04.102Z,3715
2017-05-31T13:38:13.117Z,3610
2017-05-31T13:39:22.093Z,3900
2017-05-31T13:40:31.011Z,820
2017-05-31T13:41:39.924Z,1550
2017-05-31T13:42:49.163Z,3895
2017-05-31T13:43:58.377Z,4130
2017-05-31T13:45:07.287Z,4145
2017-05-31T13:46:16.200Z,4210
2017-05-31T13:47:25.438Z,4030
2017-05-31T13:48:34.348Z,4105
2017-05-31T13:49:44.072Z,4285
2017-05-31T13:50:53.637Z,4380
2017-05-31T13:52:02.554Z,4320
2017-05-31T13:53:11.466Z,690
2017-05-31T13:54:20.701Z,650
2017-05-31T13:55:29.781Z,705
2017-05-31T13:56:38.707Z,670
2017-05-31T13:57:47.667Z,3935
2017-05-31T13:58:56.911Z,4235
2017-05-31T14:00:05.825Z,3680
2017-05-31T14:01:14.839Z,4035
2017-05-31T14:02:24.080Z,4270
2017-05-31T14:03:33.312Z,4255
2017-05-31T14:04:42.228Z,4065
2017-05-31T14:05:51.469Z,3170
2017-05-31T14:07:01.132Z,3185
2017-05-31T14:08:10.050Z,775
2017-05-31T14:09:19.287Z,3815
2017-05-31T14:10:28.205Z,3575
2017-05-31T14:11:37.124Z,3935
2017-05-31T14:12:47.008Z,3900
2017-05-31T14:13:56.244Z,3955
2017-05-31T14:15:05.169Z,4115
2017-05-31T14:16:14.084Z,3855
2017-05-31T14:17:22.997Z,3775
2017-05-31T14:18:32.660Z,3710
2017-05-31T14:19:42.228Z,3560
2017-05-31T14:20:51.144Z,3555
2017-05-31T14:22:00.056Z,3865
2017-05-31T14:23:09.302Z,635
2017-05-31T14:24:19.015Z,3750
2017-05-31T14:25:27.934Z,3575
2017-05-31T14:26:36.878Z,2590
2017-05-31T14:27:46.118Z,3380
2017-05-31T14:28:55.353Z,3485
2017-05-31T14:30:04.741Z,3660
2017-05-31T14:31:14.312Z,3855
2017-05-31T14:32:23.224Z,3575
2017-05-31T14:33:33.117Z,3495
2017-05-31T14:34:42.361Z,4060
2017-05-31T14:35:51.702Z,4025
2017-05-31T14:37:00.945Z,3630
2017-05-31T14:38:09.873Z,3560
2017-05-31T14:39:19.121Z,3310
2017-05-31T14:40:28.040Z,3590
2017-05-31T14:41:37.254Z,3480
2017-05-31T14:42:46.503Z,3410
2017-05-31T14:43:55.418Z,3495
2017-05-31T14:45:04.335Z,3420
2017-05-31T14:46:13.249Z,2835
2017-05-31T14:47:22.317Z,3425
2017-05-31T14:48:31.567Z,2620
2017-05-31T14:49:40.808Z,1050
2017-05-31T14:50:49.726Z,1175
2017-05-31T14:51:59.292Z,2910
2017-05-31T14:53:08.358Z,3355
2017-05-31T14:54:17.275Z,3140
2017-05-31T14:55:26.188Z,2025
2017-05-31T14:56:35.772Z,1190
2017-05-31T14:57:45.007Z,755
2017-05-31T14:58:54.395Z,3065
2017-05-31T15:00:03.320Z,3095
2017-05-31T15:01:12.236Z,3370
2017-05-31T15:02:21.148Z,2085
2017-05-31T15:03:30.067Z,2150
2017-05-31T15:04:39.153Z,2215
2017-05-31T15:05:48.067Z,2020
2017-05-31T15:06:56.980Z,3350
2017-05-31T15:08:06.221Z,2260
2017-05-31T15:09:15.134Z,3215
2017-05-31T15:10:24.301Z,3115
2017-05-31T15:11:33.218Z,2875
2017-05-31T15:12:42.463Z,2520
2017-05-31T15:13:51.376Z,3150
2017-05-31T15:15:00.290Z,3080
2017-05-31T15:16:09.678Z,2985
2017-05-31T15:17:18.591Z,2955
2017-05-31T15:18:27.506Z,2665
2017-05-31T15:19:36.419Z,3230
2017-05-31T15:20:45.334Z,3100
2017-05-31T15:21:54.503Z,3100
2017-05-31T15:23:04.066Z,3100
2017-05-31T15:24:13.307Z,2970
2017-05-31T15:25:22.228Z,3130
2017-05-31T15:26:31.146Z,3185
2017-05-31T15:27:40.063Z,3130
2017-05-31T15:28:49.301Z,3040
2017-05-31T15:29:58.865Z,2970
2017-05-31T15:31:08.109Z,2910
2017-05-31T15:32:17.026Z,2960
2017-05-31T15:33:26.094Z,2980
2017-05-31T15:34:35.339Z,2880
2017-05-31T15:35:44.579Z,2905
2017-05-31T15:36:53.494Z,2925
2017-05-31T15:38:02.736Z,2935
2017-05-31T15:39:11.809Z,2930
2017-05-31T15:40:20.723Z,2940
2017-05-31T15:41:29.635Z,2940
2017-05-31T15:42:38.554Z,2575
2017-05-31T15:43:47.798Z,2370
2017-05-31T15:44:57.013Z,2650
2017-05-31T15:46:06.251Z,2930
2017-05-31T15:47:15.168Z,2850
2017-05-31T15:48:24.416Z,2820
2017-05-31T15:49:33.656Z,2800
2017-05-31T15:50:42.998Z,2840
2017-05-31T15:51:52.310Z,2910
2017-05-31T15:53:01.226Z,2895
2017-05-31T15:54:10.467Z,2915
2017-05-31T15:55:19.383Z,2900
2017-05-31T15:56:28.361Z,2820
2017-05-31T15:57:37.603Z,2720
2017-05-31T15:58:46.846Z,2755